Terminal Aerodrome Forecast
Issued by NWS

Home | Current Version | Previous Version | Text Only | Print | Product List | Glossary On
Versions: 1 2 3 4 5 6 7 8 9 10 11 12 13 14 15 16 17 18 19 20 21
000
FTUS46 KMTR 241700
TAFSNS
TAF
KSNS 241722Z 2418/2518 27005KT P6SM SKC
     FM242000 29012KT P6SM SKC
     FM250400 29008KT P6SM FEW008
     FM250800 29005KT P6SM BKN007
     FM251100 VRB03KT P6SM OVC003
     FM251600 VRB03KT P6SM SKC=

USA.gov is the U.S. government's official web portal to all federal, state and local government web resources and services.